createdAt,value
2023-08-10T00:03:01.682Z,11.30
2023-08-10T00:08:09.181Z,14.40
2023-08-10T00:13:16.154Z,10.70
2023-08-10T00:18:23.055Z,15.10
2023-08-10T00:23:29.944Z,15.10
2023-08-10T00:28:36.801Z,18.00
2023-08-10T00:33:43.750Z,17.70
2023-08-10T00:38:50.563Z,12.00
2023-08-10T00:43:57.848Z,13.60
2023-08-10T00:49:05.878Z,14.30
2023-08-10T00:54:12.884Z,13.70
2023-08-10T00:59:20.064Z,16.70
2023-08-10T01:04:27.110Z,17.10
2023-08-10T01:09:40.842Z,20.70
2023-08-10T01:14:52.003Z,19.60
2023-08-10T01:20:01.408Z,22.00
2023-08-10T01:25:11.095Z,20.00
2023-08-10T01:30:18.292Z,18.80
2023-08-10T01:35:26.126Z,17.60
2023-08-10T01:40:32.999Z,20.50
2023-08-10T01:45:43.381Z,18.40
2023-08-10T01:50:54.690Z,24.20
2023-08-10T01:56:02.285Z,16.00
2023-08-10T02:01:10.326Z,18.10
2023-08-10T02:06:17.349Z,16.90
2023-08-10T02:11:24.472Z,18.90
2023-08-10T02:16:31.476Z,16.00
2023-08-10T02:21:38.630Z,20.10
2023-08-10T02:26:45.760Z,16.30
2023-08-10T02:31:52.850Z,19.60
2023-08-10T02:36:59.841Z,20.60
2023-08-10T02:42:07.246Z,19.80
2023-08-10T02:47:14.593Z,16.50
2023-08-10T02:52:21.543Z,31.90
2023-08-10T02:57:28.475Z,15.80
2023-08-10T03:02:35.396Z,15.40
2023-08-10T03:07:43.928Z,16.20
2023-08-10T03:12:51.074Z,20.80
2023-08-10T03:17:58.924Z,17.30
2023-08-10T03:23:06.292Z,18.60
2023-08-10T03:28:13.644Z,17.00
2023-08-10T03:33:20.897Z,16.20
2023-08-10T03:38:28.491Z,19.70
2023-08-10T03:43:35.588Z,18.80
2023-08-10T03:48:42.486Z,16.30
2023-08-10T03:53:50.177Z,17.60
2023-08-10T03:58:58.889Z,20.80
2023-08-10T04:04:06.487Z,25.60
2023-08-10T04:09:13.702Z,17.50
2023-08-10T04:14:20.638Z,14.80
2023-08-10T04:19:29.204Z,16.80
2023-08-10T04:24:36.088Z,18.40
2023-08-10T04:29:45.547Z,17.90
2023-08-10T04:34:53.450Z,18.30
2023-08-10T04:40:00.316Z,26.40
2023-08-10T04:45:10.613Z,18.10
2023-08-10T04:50:17.682Z,21.90
2023-08-10T04:55:26.747Z,19.90
2023-08-10T05:00:33.899Z,20.60
2023-08-10T05:05:42.977Z,20.90
2023-08-10T05:10:51.534Z,20.70
2023-08-10T05:15:58.539Z,16.30
2023-08-10T05:21:05.735Z,11.80
2023-08-10T05:26:13.252Z,15.40
2023-08-10T05:31:20.082Z,14.20
2023-08-10T05:36:27.040Z,12.60
2023-08-10T05:41:34.396Z,10.50
2023-08-10T05:46:41.324Z,11.10
2023-08-10T05:51:48.145Z,10.80
2023-08-10T05:56:58.635Z,12.50
2023-08-10T06:02:08.108Z,10.10
2023-08-10T06:07:14.990Z,7.40
2023-08-10T06:12:22.168Z,14.60
2023-08-10T06:17:29.755Z,8.00
2023-08-10T06:22:36.759Z,7.90
2023-08-10T06:27:44.066Z,9.00
2023-08-10T06:32:51.116Z,10.80
2023-08-10T06:37:58.162Z,7.50
2023-08-10T06:43:05.437Z,5.20
2023-08-10T06:48:20.682Z,5.80
2023-08-10T06:53:28.861Z,9.20
2023-08-10T07:03:47.297Z,5.90
2023-08-10T07:08:54.423Z,6.40
2023-08-10T07:14:02.258Z,4.90
2023-08-10T07:19:10.198Z,6.50
2023-08-10T07:24:17.044Z,3.80
2023-08-10T07:29:24.194Z,3.00
2023-08-10T07:34:31.109Z,4.90
2023-08-10T07:39:37.945Z,4.90
2023-08-10T07:44:44.950Z,5.80
2023-08-10T07:49:52.806Z,6.60
2023-08-10T07:55:00.254Z,5.70
2023-08-10T08:00:09.749Z,4.50
2023-08-10T08:05:22.895Z,7.20
2023-08-10T08:10:30.493Z,4.90
2023-08-10T08:15:39.704Z,3.80
2023-08-10T08:20:50.433Z,6.60
2023-08-10T08:26:00.369Z,4.80
2023-08-10T08:31:07.779Z,3.70
2023-08-10T08:36:17.682Z,5.40
2023-08-10T08:41:29.498Z,4.10
2023-08-10T08:46:42.468Z,4.10
2023-08-10T08:51:50.802Z,3.10
2023-08-10T08:57:01.317Z,7.50
2023-08-10T09:02:18.000Z,13.00
2023-08-10T09:07:26.215Z,5.30
2023-08-10T09:12:37.355Z,4.90
2023-08-10T09:17:48.627Z,4.00
2023-08-10T09:22:56.843Z,5.70
2023-08-10T09:28:08.913Z,3.80
2023-08-10T09:33:34.156Z,3.10
2023-08-10T09:38:53.002Z,4.30
2023-08-10T09:44:00.780Z,3.40
2023-08-10T09:49:07.922Z,6.80
2023-08-10T09:54:15.215Z,5.10
2023-08-10T09:59:22.391Z,5.70
2023-08-10T10:04:34.760Z,10.30
2023-08-10T10:09:44.374Z,4.20
2023-08-10T10:14:51.452Z,6.50
2023-08-10T10:19:58.874Z,3.20
2023-08-10T10:25:05.965Z,4.00
2023-08-10T10:30:25.351Z,4.20
2023-08-10T10:35:35.470Z,5.00
2023-08-10T10:40:44.260Z,3.80
2023-08-10T10:45:52.730Z,4.80
2023-08-10T10:51:03.902Z,3.90
2023-08-10T10:56:10.957Z,5.60
2023-08-10T11:01:20.656Z,5.60
2023-08-10T11:06:28.989Z,3.10
2023-08-10T11:11:36.424Z,3.00
2023-08-10T11:16:45.828Z,3.70
2023-08-10T11:27:04.914Z,3.60
2023-08-10T11:32:12.169Z,6.30
2023-08-10T11:37:19.512Z,10.30
2023-08-10T11:42:26.479Z,5.30
2023-08-10T11:52:56.445Z,6.80
2023-08-10T11:58:03.489Z,4.40
2023-08-10T12:03:14.277Z,5.60
2023-08-10T12:08:26.751Z,3.80
2023-08-10T12:13:35.082Z,6.50
2023-08-10T12:18:42.724Z,4.30
2023-08-10T12:23:49.914Z,5.60
2023-08-10T12:28:57.425Z,5.50
2023-08-10T12:34:04.760Z,5.30
2023-08-10T12:39:11.947Z,6.80
2023-08-10T12:44:18.928Z,2.40
2023-08-10T12:49:26.142Z,2.60
2023-08-10T12:54:35.408Z,5.00
2023-08-10T13:04:48.923Z,4.30
2023-08-10T13:09:58.838Z,3.80
2023-08-10T13:15:07.369Z,3.00
2023-08-10T13:20:15.084Z,5.30
2023-08-10T13:25:22.110Z,2.70
2023-08-10T13:30:29.626Z,6.90
2023-08-10T13:35:36.567Z,4.00
2023-08-10T13:40:43.486Z,8.30
2023-08-10T13:45:50.489Z,5.20
2023-08-10T13:51:04.345Z,4.40
2023-08-10T13:56:11.853Z,3.80
2023-08-10T14:01:19.686Z,3.70
2023-08-10T14:06:26.661Z,3.70
2023-08-10T14:11:33.546Z,4.10
2023-08-10T14:16:40.603Z,3.90
2023-08-10T14:21:47.679Z,3.50
2023-08-10T14:26:54.602Z,4.20
2023-08-10T14:32:01.604Z,4.40
2023-08-10T14:37:08.569Z,2.90
2023-08-10T14:42:15.590Z,6.30
2023-08-10T14:47:22.577Z,3.10
2023-08-10T14:52:29.739Z,2.30
2023-08-10T14:57:36.831Z,3.40
2023-08-10T15:02:43.921Z,4.10
2023-08-10T15:07:53.212Z,7.40
2023-08-10T15:13:00.213Z,3.60
2023-08-10T15:18:07.789Z,6.10
2023-08-10T15:23:26.892Z,3.50
2023-08-10T15:28:42.134Z,5.00
2023-08-10T15:33:49.301Z,4.80
2023-08-10T15:38:56.102Z,9.10
2023-08-10T15:44:03.021Z,2.60
2023-08-10T15:49:09.876Z,4.70
2023-08-10T15:54:16.719Z,4.70
2023-08-10T15:59:23.623Z,6.10
2023-08-10T16:04:31.796Z,3.80
2023-08-10T16:09:46.787Z,7.10
2023-08-10T16:14:56.500Z,3.80
2023-08-10T16:20:04.440Z,4.30
2023-08-10T16:25:12.252Z,4.30
2023-08-10T16:30:23.216Z,3.10
2023-08-10T16:35:30.696Z,4.80
2023-08-10T16:40:43.092Z,2.80
2023-08-10T16:45:50.637Z,4.80
2023-08-10T16:51:03.795Z,5.80
2023-08-10T16:56:13.604Z,4.70
2023-08-10T17:01:20.819Z,4.00
2023-08-10T17:06:28.952Z,3.80
2023-08-10T17:11:35.973Z,5.20
2023-08-10T17:16:44.883Z,5.00
2023-08-10T17:26:59.604Z,6.70
2023-08-10T17:32:08.717Z,5.00
2023-08-10T17:37:16.682Z,5.20
2023-08-10T17:42:27.020Z,7.00
2023-08-10T17:47:38.468Z,4.80
2023-08-10T17:52:49.408Z,9.70
2023-08-10T17:57:56.862Z,6.20
2023-08-10T18:03:04.328Z,5.90
2023-08-10T18:08:12.044Z,4.40
2023-08-10T18:13:20.058Z,9.50
2023-08-10T18:18:27.493Z,4.60
2023-08-10T18:23:35.370Z,5.70
2023-08-10T18:28:51.960Z,7.30
2023-08-10T18:34:00.571Z,4.80
2023-08-10T18:39:08.860Z,7.60
2023-08-10T18:44:24.661Z,6.10
2023-08-10T18:49:32.262Z,6.10
2023-08-10T18:54:40.989Z,7.70
2023-08-10T18:59:51.928Z,7.60
2023-08-10T19:05:09.693Z,8.20
2023-08-10T19:10:18.201Z,4.50
2023-08-10T19:15:27.408Z,8.00
2023-08-10T19:20:36.676Z,7.70
2023-08-10T19:25:44.255Z,3.90
2023-08-10T19:30:53.228Z,6.30
2023-08-10T19:36:07.697Z,4.90
2023-08-10T19:41:15.222Z,7.50
2023-08-10T19:46:26.491Z,6.50
2023-08-10T19:51:36.001Z,3.80
2023-08-10T19:56:43.547Z,5.70
2023-08-10T20:01:51.301Z,11.30
2023-08-10T20:07:01.070Z,6.10
2023-08-10T20:12:15.710Z,5.20
2023-08-10T20:17:27.172Z,5.80
2023-08-10T20:22:41.150Z,12.40
2023-08-10T20:27:51.353Z,6.60
2023-08-10T20:33:00.584Z,6.40
2023-08-10T20:38:11.715Z,7.60
2023-08-10T20:43:21.060Z,7.00
2023-08-10T20:48:32.540Z,12.70
2023-08-10T20:53:45.056Z,10.10
2023-08-10T20:58:56.165Z,5.70
2023-08-10T21:04:11.858Z,9.80
2023-08-10T21:09:28.813Z,4.70
2023-08-10T21:14:45.571Z,5.20
2023-08-10T21:20:07.024Z,8.10
2023-08-10T21:25:21.284Z,7.80
2023-08-10T21:30:30.469Z,10.50
2023-08-10T21:35:38.489Z,8.20
2023-08-10T21:40:48.065Z,9.60
2023-08-10T21:45:55.185Z,5.80
2023-08-10T21:51:03.208Z,6.20
2023-08-10T21:56:10.907Z,8.70
2023-08-10T22:01:19.841Z,8.50
2023-08-10T22:06:28.012Z,8.20
2023-08-10T22:11:35.010Z,8.70
2023-08-10T22:16:45.440Z,8.20
2023-08-10T22:21:53.087Z,9.50
2023-08-10T22:27:00.731Z,11.30
2023-08-10T22:32:09.957Z,9.90
2023-08-10T22:37:26.172Z,10.40
2023-08-10T22:42:33.180Z,9.10
2023-08-10T22:47:43.015Z,8.80
2023-08-10T22:52:50.304Z,8.50
2023-08-10T22:57:57.418Z,12.00
2023-08-10T23:03:04.458Z,13.40
2023-08-10T23:08:12.262Z,9.00
2023-08-10T23:13:19.144Z,10.00
2023-08-10T23:18:26.447Z,8.90
2023-08-10T23:23:33.397Z,10.30
2023-08-10T23:28:40.747Z,10.20
2023-08-10T23:33:49.947Z,10.80
2023-08-10T23:38:56.937Z,12.10
2023-08-10T23:44:04.024Z,7.70
2023-08-10T23:49:10.941Z,9.70
2023-08-10T23:54:18.955Z,10.10
2023-08-10T23:59:25.884Z,11.10
